sensor_id;sensor_type;location;lat;lon;timestamp;pressure;altitude;pressure_sealevel;temperature;humidity
18504;BME280;9381;54.244;10.074;2022-07-29T00:03:49;101613.28;;;12.65;91.16
18504;BME280;9381;54.244;10.074;2022-07-29T00:08:50;101616.00;;;12.65;91.12
18504;BME280;9381;54.244;10.074;2022-07-29T00:13:50;101608.91;;;12.64;91.22
18504;BME280;9381;54.244;10.074;2022-07-29T00:18:50;101613.28;;;12.65;91.31
18504;BME280;9381;54.244;10.074;2022-07-29T00:23:50;101604.28;;;12.58;91.12
18504;BME280;9381;54.244;10.074;2022-07-29T00:28:51;101604.50;;;12.50;91.26
18504;BME280;9381;54.244;10.074;2022-07-29T00:33:51;101596.97;;;12.46;90.97
18504;BME280;9381;54.244;10.074;2022-07-29T00:38:52;101598.44;;;12.48;90.55
18504;BME280;9381;54.244;10.074;2022-07-29T00:43:52;101599.91;;;12.51;90.62
18504;BME280;9381;54.244;10.074;2022-07-29T00:48:52;101614.31;;;12.38;91.25
18504;BME280;9381;54.244;10.074;2022-07-29T00:53:53;101614.06;;;12.27;90.96
18504;BME280;9381;54.244;10.074;2022-07-29T00:58:55;101617.41;;;12.22;91.09
18504;BME280;9381;54.244;10.074;2022-07-29T01:03:56;101615.72;;;12.21;91.36
18504;BME280;9381;54.244;10.074;2022-07-29T01:08:57;101610.69;;;12.18;90.87
18504;BME280;9381;54.244;10.074;2022-07-29T01:13:58;101608.19;;;12.10;91.51
18504;BME280;9381;54.244;10.074;2022-07-29T01:29:54;101611.97;;;12.09;91.66
18504;BME280;9381;54.244;10.074;2022-07-29T01:35:38;101613.19;;;12.07;91.57
18504;BME280;9381;54.244;10.074;2022-07-29T01:40:25;101606.06;;;11.93;91.17
18504;BME280;9381;54.244;10.074;2022-07-29T01:45:37;101602.28;;;11.87;91.76
18504;BME280;9381;54.244;10.074;2022-07-29T01:50:48;101603.97;;;11.88;91.38
18504;BME280;9381;54.244;10.074;2022-07-29T01:55:49;101595.81;;;11.82;91.76
18504;BME280;9381;54.244;10.074;2022-07-29T02:00:51;101593.09;;;11.75;91.18
18504;BME280;9381;54.244;10.074;2022-07-29T02:05:52;101592.22;;;11.68;91.14
18504;BME280;9381;54.244;10.074;2022-07-29T02:10:54;101592.22;;;11.68;91.32
18504;BME280;9381;54.244;10.074;2022-07-29T02:15:56;101585.94;;;11.62;91.66
18504;BME280;9381;54.244;10.074;2022-07-29T02:20:59;101580.94;;;11.59;91.76
18504;BME280;9381;54.244;10.074;2022-07-29T02:26:01;101580.72;;;11.60;92.03
18504;BME280;9381;54.244;10.074;2022-07-29T02:31:02;101576.72;;;11.56;91.90
18504;BME280;9381;54.244;10.074;2022-07-29T02:36:03;101573.34;;;11.48;92.34
18504;BME280;9381;54.244;10.074;2022-07-29T02:41:09;101573.34;;;11.48;92.53
18504;BME280;9381;54.244;10.074;2022-07-29T02:46:14;101570.00;;;11.46;92.56
18504;BME280;9381;54.244;10.074;2022-07-29T02:51:23;101570.22;;;11.51;91.95
18504;BME280;9381;54.244;10.074;2022-07-29T02:56:27;101567.53;;;11.51;91.77
18504;BME280;9381;54.244;10.074;2022-07-29T03:01:32;101572.94;;;11.51;91.58
18504;BME280;9381;54.244;10.074;2022-07-29T03:06:33;101563.13;;;11.50;92.11
18504;BME280;9381;54.244;10.074;2022-07-29T03:11:35;101569.00;;;11.53;92.75
18504;BME280;9381;54.244;10.074;2022-07-29T03:16:36;101565.44;;;11.52;92.66
18504;BME280;9381;54.244;10.074;2022-07-29T03:21:37;101564.19;;;11.55;93.14
18504;BME280;9381;54.244;10.074;2022-07-29T03:26:37;101560.06;;;11.59;93.44
18504;BME280;9381;54.244;10.074;2022-07-29T03:31:37;101553.84;;;11.65;94.02
18504;BME280;9381;54.244;10.074;2022-07-29T03:36:38;101556.75;;;11.63;94.36
18504;BME280;9381;54.244;10.074;2022-07-29T03:41:38;101554.28;;;11.68;95.00
18504;BME280;9381;54.244;10.074;2022-07-29T03:46:43;101554.09;;;11.76;95.78
18504;BME280;9381;54.244;10.074;2022-07-29T03:51:44;101555.56;;;11.85;96.08
18504;BME280;9381;54.244;10.074;2022-07-29T03:56:46;101544.31;;;11.95;96.69
18504;BME280;9381;54.244;10.074;2022-07-29T04:01:48;101548.13;;;12.00;96.95
18504;BME280;9381;54.244;10.074;2022-07-29T04:06:49;101542.50;;;12.15;97.47
18504;BME280;9381;54.244;10.074;2022-07-29T04:11:49;101540.63;;;12.28;97.41
18504;BME280;9381;54.244;10.074;2022-07-29T04:16:50;101547.09;;;12.40;97.73
18504;BME280;9381;54.244;10.074;2022-07-29T04:21:50;101546.47;;;12.51;98.07
18504;BME280;9381;54.244;10.074;2022-07-29T04:26:51;101548.53;;;12.62;97.58
18504;BME280;9381;54.244;10.074;2022-07-29T04:31:52;101546.47;;;12.71;98.00
18504;BME280;9381;54.244;10.074;2022-07-29T04:36:52;101545.38;;;12.78;98.18
18504;BME280;9381;54.244;10.074;2022-07-29T04:41:53;101541.41;;;12.87;98.52
18504;BME280;9381;54.244;10.074;2022-07-29T04:46:53;101538.06;;;12.98;98.68
18504;BME280;9381;54.244;10.074;2022-07-29T04:51:53;101539.50;;;13.07;98.78
18504;BME280;9381;54.244;10.074;2022-07-29T04:56:54;101543.03;;;13.21;99.15
18504;BME280;9381;54.244;10.074;2022-07-29T05:01:54;101540.91;;;13.29;99.62
18504;BME280;9381;54.244;10.074;2022-07-29T05:06:54;101534.81;;;13.40;99.86
18504;BME280;9381;54.244;10.074;2022-07-29T05:11:55;101539.97;;;13.55;99.90
18504;BME280;9381;54.244;10.074;2022-07-29T05:16:55;101535.75;;;13.65;99.28
18504;BME280;9381;54.244;10.074;2022-07-29T05:21:57;101534.59;;;13.79;99.11
18504;BME280;9381;54.244;10.074;2022-07-29T05:26:57;101537.25;;;13.92;99.58
18504;BME280;9381;54.244;10.074;2022-07-29T05:31:58;101528.78;;;14.07;99.63
18504;BME280;9381;54.244;10.074;2022-07-29T05:36:58;101535.00;;;14.20;100.00
18504;BME280;9381;54.244;10.074;2022-07-29T05:41:59;101535.22;;;14.43;99.97
18504;BME280;9381;54.244;10.074;2022-07-29T05:46:59;101542.97;;;14.64;99.83
18504;BME280;9381;54.244;10.074;2022-07-29T05:51:59;101538.56;;;14.87;97.57
18504;BME280;9381;54.244;10.074;2022-07-29T05:57:00;101535.84;;;15.05;96.88
18504;BME280;9381;54.244;10.074;2022-07-29T06:02:00;101543.22;;;15.23;96.62
18504;BME280;9381;54.244;10.074;2022-07-29T06:07:00;101544.75;;;15.37;94.39
18504;BME280;9381;54.244;10.074;2022-07-29T06:12:02;101545.78;;;15.54;94.26
18504;BME280;9381;54.244;10.074;2022-07-29T06:17:02;101541.75;;;15.74;93.03
18504;BME280;9381;54.244;10.074;2022-07-29T06:22:03;101548.72;;;15.88;91.96
18504;BME280;9381;54.244;10.074;2022-07-29T06:27:03;101550.81;;;16.16;90.58
18504;BME280;9381;54.244;10.074;2022-07-29T06:32:04;101547.63;;;16.30;89.72
18504;BME280;9381;54.244;10.074;2022-07-29T06:37:08;101539.75;;;16.52;87.88
18504;BME280;9381;54.244;10.074;2022-07-29T06:42:08;101541.69;;;16.86;86.56
18504;BME280;9381;54.244;10.074;2022-07-29T06:47:08;101543.28;;;17.21;82.50
18504;BME280;9381;54.244;10.074;2022-07-29T06:52:09;101536.41;;;17.42;81.12
18504;BME280;9381;54.244;10.074;2022-07-29T06:57:09;101547.22;;;17.76;80.06
18504;BME280;9381;54.244;10.074;2022-07-29T07:02:10;101546.31;;;18.15;77.50
18504;BME280;9381;54.244;10.074;2022-07-29T07:07:10;101536.53;;;18.47;75.14
18504;BME280;9381;54.244;10.074;2022-07-29T07:12:11;101531.19;;;18.73;75.05
18504;BME280;9381;54.244;10.074;2022-07-29T07:17:11;101538.81;;;18.88;72.04
18504;BME280;9381;54.244;10.074;2022-07-29T07:22:11;101531.47;;;18.93;72.08
18504;BME280;9381;54.244;10.074;2022-07-29T07:27:11;101532.50;;;18.87;71.65
18504;BME280;9381;54.244;10.074;2022-07-29T07:32:12;101528.25;;;18.96;73.59
18504;BME280;9381;54.244;10.074;2022-07-29T07:37:13;101525.31;;;19.19;73.06
18504;BME280;9381;54.244;10.074;2022-07-29T07:42:14;101523.03;;;19.54;71.82
18504;BME280;9381;54.244;10.074;2022-07-29T07:47:15;101526.88;;;19.80;69.74
18504;BME280;9381;54.244;10.074;2022-07-29T07:52:20;101538.56;;;20.13;69.67
18504;BME280;9381;54.244;10.074;2022-07-29T07:57:21;101523.69;;;20.41;66.34
18504;BME280;9381;54.244;10.074;2022-07-29T08:02:21;101524.31;;;20.48;66.33
18504;BME280;9381;54.244;10.074;2022-07-29T08:07:22;101517.38;;;20.40;65.82
18504;BME280;9381;54.244;10.074;2022-07-29T08:12:22;101522.16;;;20.23;66.20
18504;BME280;9381;54.244;10.074;2022-07-29T08:17:22;101517.63;;;20.12;66.23
18504;BME280;9381;54.244;10.074;2022-07-29T08:22:23;101518.31;;;20.24;66.54
18504;BME280;9381;54.244;10.074;2022-07-29T08:27:23;101509.00;;;20.30;67.13
18504;BME280;9381;54.244;10.074;2022-07-29T08:32:23;101509.47;;;20.54;68.28
18504;BME280;9381;54.244;10.074;2022-07-29T08:37:24;101510.63;;;20.89;65.51
18504;BME280;9381;54.244;10.074;2022-07-29T08:42:24;101508.06;;;21.24;63.78
18504;BME280;9381;54.244;10.074;2022-07-29T08:47:25;101507.16;;;21.65;63.81
18504;BME280;9381;54.244;10.074;2022-07-29T08:52:29;101497.84;;;21.81;60.98
18504;BME280;9381;54.244;10.074;2022-07-29T08:57:33;101500.59;;;21.86;59.99
18504;BME280;9381;54.244;10.074;2022-07-29T09:02:38;101502.50;;;21.80;59.84
18504;BME280;9381;54.244;10.074;2022-07-29T09:07:39;101507.78;;;22.02;59.82
18504;BME280;9381;54.244;10.074;2022-07-29T09:12:40;101503.13;;;22.22;58.34
18504;BME280;9381;54.244;10.074;2022-07-29T09:17:48;101491.00;;;22.33;58.51
18504;BME280;9381;54.244;10.074;2022-07-29T09:22:50;101499.59;;;22.52;56.52
18504;BME280;9381;54.244;10.074;2022-07-29T09:27:53;101500.13;;;22.79;57.63
18504;BME280;9381;54.244;10.074;2022-07-29T09:32:54;101495.06;;;23.26;58.03
18504;BME280;9381;54.244;10.074;2022-07-29T09:37:55;101487.59;;;23.85;54.14
18504;BME280;9381;54.244;10.074;2022-07-29T09:42:56;101486.75;;;24.28;51.76
18504;BME280;9381;54.244;10.074;2022-07-29T09:47:57;101481.22;;;24.28;50.85
18504;BME280;9381;54.244;10.074;2022-07-29T09:53:03;101481.63;;;24.11;52.91
18504;BME280;9381;54.244;10.074;2022-07-29T09:58:17;101494.97;;;23.99;49.75
18504;BME280;9381;54.244;10.074;2022-07-29T10:03:18;101469.00;;;24.34;50.55
18504;BME280;9381;54.244;10.074;2022-07-29T10:08:25;101476.19;;;24.68;49.52
18504;BME280;9381;54.244;10.074;2022-07-29T10:13:26;101476.22;;;25.38;51.19
18504;BME280;9381;54.244;10.074;2022-07-29T10:18:26;101472.47;;;25.71;47.56
18504;BME280;9381;54.244;10.074;2022-07-29T10:23:28;101469.72;;;26.59;46.81
18504;BME280;9381;54.244;10.074;2022-07-29T10:28:32;101466.50;;;26.52;47.05
18504;BME280;9381;54.244;10.074;2022-07-29T10:33:46;101471.91;;;25.69;45.95
18504;BME280;9381;54.244;10.074;2022-07-29T10:39:03;101468.47;;;25.77;48.76
18504;BME280;9381;54.244;10.074;2022-07-29T10:44:09;101469.03;;;26.48;45.93
18504;BME280;9381;54.244;10.074;2022-07-29T10:49:16;101473.66;;;26.21;46.12
18504;BME280;9381;54.244;10.074;2022-07-29T10:54:17;101468.63;;;25.86;45.95
18504;BME280;9381;54.244;10.074;2022-07-29T11:15:12;101455.63;;;27.90;43.24
18504;BME280;9381;54.244;10.074;2022-07-29T11:25:36;101463.41;;;28.98;40.82
18504;BME280;9381;54.244;10.074;2022-07-29T11:30:51;101456.13;;;29.75;40.18
18504;BME280;9381;54.244;10.074;2022-07-29T11:36:10;101448.59;;;30.09;38.17
18504;BME280;9381;54.244;10.074;2022-07-29T11:46:49;101443.97;;;29.71;38.75
18504;BME280;9381;54.244;10.074;2022-07-29T11:51:52;101436.25;;;29.68;38.39
18504;BME280;9381;54.244;10.074;2022-07-29T11:56:52;101441.84;;;29.68;38.42
18504;BME280;9381;54.244;10.074;2022-07-29T12:01:58;101439.41;;;29.19;39.04
18504;BME280;9381;54.244;10.074;2022-07-29T12:06:59;101443.56;;;27.94;40.33
18504;BME280;9381;54.244;10.074;2022-07-29T12:11:59;101437.69;;;27.47;42.11
18504;BME280;9381;54.244;10.074;2022-07-29T12:17:00;101441.38;;;27.02;42.13
18504;BME280;9381;54.244;10.074;2022-07-29T12:22:00;101432.53;;;26.73;42.89
18504;BME280;9381;54.244;10.074;2022-07-29T12:27:00;101432.81;;;26.26;43.28
18504;BME280;9381;54.244;10.074;2022-07-29T12:32:03;101432.09;;;26.02;43.91
18504;BME280;9381;54.244;10.074;2022-07-29T12:37:04;101434.25;;;26.05;43.83
18504;BME280;9381;54.244;10.074;2022-07-29T12:42:12;101435.81;;;26.11;43.94
18504;BME280;9381;54.244;10.074;2022-07-29T12:47:13;101429.84;;;26.04;44.32
18504;BME280;9381;54.244;10.074;2022-07-29T12:52:30;101430.75;;;26.00;44.59
18504;BME280;9381;54.244;10.074;2022-07-29T12:57:31;101433.28;;;25.96;43.53
18504;BME280;9381;54.244;10.074;2022-07-29T13:02:32;101428.63;;;25.73;45.22
18504;BME280;9381;54.244;10.074;2022-07-29T13:07:33;101431.63;;;25.58;45.96
18504;BME280;9381;54.244;10.074;2022-07-29T13:12:35;101429.81;;;25.30;47.42
18504;BME280;9381;54.244;10.074;2022-07-29T13:17:40;101434.06;;;25.41;46.25
18504;BME280;9381;54.244;10.074;2022-07-29T13:22:42;101425.19;;;25.44;46.34
18504;BME280;9381;54.244;10.074;2022-07-29T13:27:42;101416.00;;;25.49;46.33
18504;BME280;9381;54.244;10.074;2022-07-29T13:32:45;101420.16;;;25.46;46.16
18504;BME280;9381;54.244;10.074;2022-07-29T13:37:46;101419.88;;;25.48;46.44
18504;BME280;9381;54.244;10.074;2022-07-29T13:42:47;101416.03;;;25.25;46.58
18504;BME280;9381;54.244;10.074;2022-07-29T13:47:47;101414.38;;;25.24;47.29
18504;BME280;9381;54.244;10.074;2022-07-29T13:52:47;101410.34;;;25.35;46.96
18504;BME280;9381;54.244;10.074;2022-07-29T13:57:48;101402.47;;;25.00;48.16
18504;BME280;9381;54.244;10.074;2022-07-29T14:02:49;101408.41;;;25.12;48.16
18504;BME280;9381;54.244;10.074;2022-07-29T14:07:49;101403.19;;;24.87;48.05
18504;BME280;9381;54.244;10.074;2022-07-29T14:12:49;101405.66;;;24.65;48.66
18504;BME280;9381;54.244;10.074;2022-07-29T14:17:49;101398.34;;;24.98;49.62
18504;BME280;9381;54.244;10.074;2022-07-29T14:22:50;101401.88;;;25.03;48.21
18504;BME280;9381;54.244;10.074;2022-07-29T14:27:50;101393.06;;;25.01;47.67
18504;BME280;9381;54.244;10.074;2022-07-29T14:32:50;101400.19;;;25.31;46.87
18504;BME280;9381;54.244;10.074;2022-07-29T14:37:51;101392.63;;;25.36;46.65
18504;BME280;9381;54.244;10.074;2022-07-29T14:42:51;101390.38;;;25.38;47.36
18504;BME280;9381;54.244;10.074;2022-07-29T14:47:52;101383.38;;;25.22;47.57
18504;BME280;9381;54.244;10.074;2022-07-29T14:52:52;101372.88;;;25.19;47.68
18504;BME280;9381;54.244;10.074;2022-07-29T14:57:53;101368.72;;;25.22;48.07
18504;BME280;9381;54.244;10.074;2022-07-29T15:02:54;101366.28;;;25.39;47.10
18504;BME280;9381;54.244;10.074;2022-07-29T15:07:54;101370.09;;;25.24;47.36
18504;BME280;9381;54.244;10.074;2022-07-29T15:12:55;101376.31;;;25.11;47.29
18504;BME280;9381;54.244;10.074;2022-07-29T15:17:55;101371.03;;;24.91;48.15
18504;BME280;9381;54.244;10.074;2022-07-29T15:22:56;101371.75;;;24.78;48.65
18504;BME280;9381;54.244;10.074;2022-07-29T15:27:56;101364.03;;;24.75;48.74
18504;BME280;9381;54.244;10.074;2022-07-29T15:32:57;101365.97;;;24.51;49.28
18504;BME280;9381;54.244;10.074;2022-07-29T15:37:57;101352.16;;;24.46;48.94
18504;BME280;9381;54.244;10.074;2022-07-29T15:42:57;101335.81;;;24.50;48.52
18504;BME280;9381;54.244;10.074;2022-07-29T15:48:07;101351.81;;;24.53;49.03
18504;BME280;9381;54.244;10.074;2022-07-29T15:53:07;101339.38;;;24.50;49.30
18504;BME280;9381;54.244;10.074;2022-07-29T15:58:08;101340.50;;;24.49;48.94
18504;BME280;9381;54.244;10.074;2022-07-29T16:03:08;101338.88;;;24.48;49.26
18504;BME280;9381;54.244;10.074;2022-07-29T16:08:08;101331.31;;;24.31;49.48
18504;BME280;9381;54.244;10.074;2022-07-29T16:13:09;101335.91;;;24.17;51.78
18504;BME280;9381;54.244;10.074;2022-07-29T16:18:09;101333.69;;;24.14;52.56
18504;BME280;9381;54.244;10.074;2022-07-29T16:23:10;101333.88;;;23.99;54.64
18504;BME280;9381;54.244;10.074;2022-07-29T16:28:11;101334.22;;;23.92;55.05
18504;BME280;9381;54.244;10.074;2022-07-29T16:33:11;101332.22;;;23.98;55.00
18504;BME280;9381;54.244;10.074;2022-07-29T16:38:12;101338.94;;;23.87;56.24
18504;BME280;9381;54.244;10.074;2022-07-29T16:43:12;101341.50;;;23.73;58.10
18504;BME280;9381;54.244;10.074;2022-07-29T16:48:13;101337.16;;;23.67;58.20
18504;BME280;9381;54.244;10.074;2022-07-29T16:53:14;101329.72;;;23.63;58.48
18504;BME280;9381;54.244;10.074;2022-07-29T16:58:14;101328.72;;;23.49;60.34
18504;BME280;9381;54.244;10.074;2022-07-29T17:03:14;101323.75;;;23.51;58.89
18504;BME280;9381;54.244;10.074;2022-07-29T17:08:15;101314.66;;;23.45;59.71
18504;BME280;9381;54.244;10.074;2022-07-29T17:13:15;101315.59;;;23.31;60.08
18504;BME280;9381;54.244;10.074;2022-07-29T17:18:16;101312.34;;;23.24;59.86
18504;BME280;9381;54.244;10.074;2022-07-29T17:23:16;101318.94;;;23.28;61.25
18504;BME280;9381;54.244;10.074;2022-07-29T17:28:16;101314.47;;;23.32;62.11
18504;BME280;9381;54.244;10.074;2022-07-29T17:33:17;101319.47;;;23.30;61.85
18504;BME280;9381;54.244;10.074;2022-07-29T17:38:17;101313.41;;;23.28;62.28
18504;BME280;9381;54.244;10.074;2022-07-29T17:43:17;101304.88;;;23.24;62.42
18504;BME280;9381;54.244;10.074;2022-07-29T17:48:18;101298.53;;;23.24;63.05
18504;BME280;9381;54.244;10.074;2022-07-29T17:53:19;101299.25;;;22.96;63.97
18504;BME280;9381;54.244;10.074;2022-07-29T17:58:19;101299.56;;;22.84;65.12
18504;BME280;9381;54.244;10.074;2022-07-29T18:03:19;101304.81;;;22.81;65.97
18504;BME280;9381;54.244;10.074;2022-07-29T18:08:20;101309.28;;;22.67;67.36
18504;BME280;9381;54.244;10.074;2022-07-29T18:13:20;101307.69;;;22.56;67.49
18504;BME280;9381;54.244;10.074;2022-07-29T18:18:21;101310.75;;;22.44;68.48
18504;BME280;9381;54.244;10.074;2022-07-29T18:23:21;101318.75;;;22.36;69.12
18504;BME280;9381;54.244;10.074;2022-07-29T18:28:22;101311.06;;;22.18;70.58
18504;BME280;9381;54.244;10.074;2022-07-29T18:33:22;101316.31;;;22.04;71.39
18504;BME280;9381;54.244;10.074;2022-07-29T18:38:22;101308.63;;;21.96;71.70
18504;BME280;9381;54.244;10.074;2022-07-29T18:43:23;101306.72;;;21.72;72.96
18504;BME280;9381;54.244;10.074;2022-07-29T18:48:23;101299.28;;;21.72;73.42
18504;BME280;9381;54.244;10.074;2022-07-29T18:53:23;101305.56;;;21.58;73.88
18504;BME280;9381;54.244;10.074;2022-07-29T18:58:24;101309.69;;;21.50;74.57
18504;BME280;9381;54.244;10.074;2022-07-29T19:03:24;101304.75;;;21.47;74.45
18504;BME280;9381;54.244;10.074;2022-07-29T19:08:25;101316.84;;;21.41;74.83
18504;BME280;9381;54.244;10.074;2022-07-29T19:13:25;101317.09;;;21.30;75.80
18504;BME280;9381;54.244;10.074;2022-07-29T19:18:26;101313.75;;;21.13;76.64
18504;BME280;9381;54.244;10.074;2022-07-29T19:23:26;101321.47;;;21.11;77.67
18504;BME280;9381;54.244;10.074;2022-07-29T19:28:26;101319.22;;;20.93;79.03
18504;BME280;9381;54.244;10.074;2022-07-29T19:33:27;101324.66;;;20.78;79.80
18504;BME280;9381;54.244;10.074;2022-07-29T19:38:27;101313.28;;;20.55;80.94
18504;BME280;9381;54.244;10.074;2022-07-29T19:43:27;101318.44;;;20.46;82.15
18504;BME280;9381;54.244;10.074;2022-07-29T19:48:29;101325.53;;;20.32;83.77
18504;BME280;9381;54.244;10.074;2022-07-29T19:53:29;101333.78;;;20.37;83.89
18504;BME280;9381;54.244;10.074;2022-07-29T19:58:30;101325.03;;;20.40;84.03
18504;BME280;9381;54.244;10.074;2022-07-29T20:03:31;101335.19;;;20.40;84.50
18504;BME280;9381;54.244;10.074;2022-07-29T20:08:31;101326.63;;;20.36;85.11
18504;BME280;9381;54.244;10.074;2022-07-29T20:13:32;101333.78;;;20.32;85.56
18504;BME280;9381;54.244;10.074;2022-07-29T20:18:34;101326.38;;;20.38;86.07
18504;BME280;9381;54.244;10.074;2022-07-29T20:23:34;101323.34;;;20.39;86.86
18504;BME280;9381;54.244;10.074;2022-07-29T20:28:35;101323.03;;;20.31;88.13
18504;BME280;9381;54.244;10.074;2022-07-29T20:33:36;101320.53;;;20.24;88.84
18504;BME280;9381;54.244;10.074;2022-07-29T20:38:36;101329.03;;;20.23;89.13
18504;BME280;9381;54.244;10.074;2022-07-29T20:43:37;101325.44;;;20.17;89.85
18504;BME280;9381;54.244;10.074;2022-07-29T20:48:37;101322.13;;;20.15;90.15
18504;BME280;9381;54.244;10.074;2022-07-29T20:53:39;101327.88;;;20.14;90.16
18504;BME280;9381;54.244;10.074;2022-07-29T20:58:40;101327.84;;;20.09;91.29
18504;BME280;9381;54.244;10.074;2022-07-29T21:03:41;101322.06;;;20.05;91.83
18504;BME280;9381;54.244;10.074;2022-07-29T21:08:41;101311.06;;;20.05;92.00
18504;BME280;9381;54.244;10.074;2022-07-29T21:13:42;101313.44;;;19.97;92.31
18504;BME280;9381;54.244;10.074;2022-07-29T21:18:45;101316.47;;;19.95;93.01
18504;BME280;9381;54.244;10.074;2022-07-29T21:23:46;101321.66;;;19.97;93.32
18504;BME280;9381;54.244;10.074;2022-07-29T21:28:46;101322.47;;;19.92;93.23
18504;BME280;9381;54.244;10.074;2022-07-29T21:33:47;101327.47;;;20.00;93.07
18504;BME280;9381;54.244;10.074;2022-07-29T21:38:47;101322.94;;;19.79;94.38
18504;BME280;9381;54.244;10.074;2022-07-29T21:43:48;101320.19;;;19.84;94.24
18504;BME280;9381;54.244;10.074;2022-07-29T21:48:48;101324.81;;;19.79;94.84
18504;BME280;9381;54.244;10.074;2022-07-29T21:53:48;101331.09;;;19.74;95.36
18504;BME280;9381;54.244;10.074;2022-07-29T21:58:49;101320.03;;;19.64;95.88
18504;BME280;9381;54.244;10.074;2022-07-29T22:03:50;101320.13;;;19.74;95.67
18504;BME280;9381;54.244;10.074;2022-07-29T22:08:50;101314.16;;;19.82;95.10
18504;BME280;9381;54.244;10.074;2022-07-29T22:13:51;101323.59;;;19.96;94.76
18504;BME280;9381;54.244;10.074;2022-07-29T22:18:51;101314.22;;;19.92;94.95
18504;BME280;9381;54.244;10.074;2022-07-29T22:23:51;101311.94;;;19.79;96.04
18504;BME280;9381;54.244;10.074;2022-07-29T22:28:52;101310.28;;;19.78;95.85
18504;BME280;9381;54.244;10.074;2022-07-29T22:33:52;101319.53;;;19.67;97.16
18504;BME280;9381;54.244;10.074;2022-07-29T22:38:52;101313.44;;;19.60;97.97
18504;BME280;9381;54.244;10.074;2022-07-29T22:43:53;101311.88;;;19.69;97.63
18504;BME280;9381;54.244;10.074;2022-07-29T22:48:53;101315.16;;;19.71;97.69
18504;BME280;9381;54.244;10.074;2022-07-29T22:53:53;101308.03;;;19.70;97.88
18504;BME280;9381;54.244;10.074;2022-07-29T22:58:54;101301.94;;;19.63;98.45
18504;BME280;9381;54.244;10.074;2022-07-29T23:03:54;101306.81;;;19.56;98.99
18504;BME280;9381;54.244;10.074;2022-07-29T23:08:55;101296.34;;;19.53;99.57
18504;BME280;9381;54.244;10.074;2022-07-29T23:13:55;101299.25;;;19.42;100.00
18504;BME280;9381;54.244;10.074;2022-07-29T23:18:56;101289.13;;;19.42;100.00
18504;BME280;9381;54.244;10.074;2022-07-29T23:23:56;101285.38;;;19.53;99.94
18504;BME280;9381;54.244;10.074;2022-07-29T23:28:56;101288.03;;;19.43;100.00
18504;BME280;9381;54.244;10.074;2022-07-29T23:33:56;101277.38;;;19.20;100.00
18504;BME280;9381;54.244;10.074;2022-07-29T23:38:57;101275.28;;;19.27;100.00
18504;BME280;9381;54.244;10.074;2022-07-29T23:43:57;101275.88;;;19.34;100.00
18504;BME280;9381;54.244;10.074;2022-07-29T23:48:57;101269.06;;;19.37;100.00
18504;BME280;9381;54.244;10.074;2022-07-29T23:53:58;101272.38;;;19.12;100.00
18504;BME280;9381;54.244;10.074;2022-07-29T23:58:58;101269.34;;;19.14;100.00
